EYSA/SQQ METAR and TAF weather

Enter ICAO airport designator
Station Type Date Time Source
EYSA METAR 2021/07/30 07:50 UTC NOAA

EYSA 300750Z 21015KT 180V240 9999 SCT032 21/13 Q1005 BLU NOSIG


Station Type Date Time Source
EYSA Decoded METAR 2021/07/30 07:50 UTC NOAA

Siauliai Intl./Mil., Lithuania (EYSA) 55-53-38N 023-23-42E
Jul 30, 2021 - 03:50 AM EDT / 2021.07.30 0750 UTC
Wind: from the SSW (210 degrees) at 17 MPH (15 KT) (direction variable):0
Visibility: greater than 7 mile(s):0
Sky conditions: partly cloudy
Temperature: 69 F (21 C)
Dew Point: 55 F (13 C)
Relative Humidity: 60%
Pressure (altimeter): 29.68 in. Hg (1005 hPa)
ob: EYSA 300750Z 21015KT 180V240 9999 SCT032 21/13 Q1005 BLU NOSIG
cycle: 8

Station Type Date Time Source
EYSA TAF 2021/05/13 06:03 UTC NOAA

TAF TAF EYSA 130502Z 1306/1318 VRB05KT 9000 BKN030
TEMPO 1310/1313 SHRA BKN020CB

Example: see airport list